Wind From: 13-12-2017 10:08 Until: 14-12-2017 06:00 warning for: Wind Level: Yellow info button

Although rather usual in this region, locally or potentially dangerous phenomena are expected. (such as local winds, summer thunderstorms, rising streams or high waves) Be aware and pay attention to the latest weather updates, especially if you carry out activities exposed to weather or close to a stream or shoreline. 


Meteo18 Weather Cam more information Meteo18 Weather Cam


Thunder radar more information blitzortung!


Rain radar more information rain snow radar


Visit our other weather sites:

Template documentation
and downloads

And another site



Weather Underground History page Text

Daily Summary for November 7, 2017 Units:  Both    English   Metric
« Previous Day
Next Day »
Daily Weekly Monthly Yearly Custom
  High: Low: Average:
Temperature: 47.8 °F /  8.8 °C 31.3 °F /  -0.4 °C 39.6 °F /  4.2 °C
Dew Point: 37.9 °F /  3.3 °C 29.3 °F /  -1.5 °C 34 °F /  1.1 °C
Humidity: 93 % 63 % 81 %
Wind Speed: 10 mph /  16.1 km/h - 1.9 mph /  3 km/h
Wind Gust: 14 mph /  22.5 km/h - -
Wind:- - WSW
Pressure: 30.3 in /  1024.3 hPa 30.1 in /  1018.8 hPa -
Precipitation: 0 in /  0.0 mm    
Historical Graphs
 
 
Tabular Data for November 7, 2017
Time Temperature Dew Point Pressure Wind Wind Speed Wind Gust Humidity Rainfall Rate (Hourly)
00:02 37.9 °F /  3.3 °C 33.8 °F /  1.0 °C 30.3 in /  1024.3 hPa North 3 mph /  4.8 km/h 7 mph /  11.3 km/h 85 % 0 in /  0.0 mm
00:07 37.9 °F /  3.3 °C 33.8 °F /  1.0 °C 30.3 in /  1024.3 hPa North 4 mph /  6.4 km/h 7 mph /  11.3 km/h 85 % 0 in /  0.0 mm
00:12 37.9 °F /  3.3 °C 33.8 °F /  1.0 °C 30.3 in /  1024.3 hPa North 1 mph /  1.6 km/h 6 mph /  9.7 km/h 85 % 0 in /  0.0 mm
00:17 37.8 °F /  3.2 °C 33.6 °F /  0.9 °C 30.3 in /  1024.3 hPa NW 4 mph /  6.4 km/h 6 mph /  9.7 km/h 85 % 0 in /  0.0 mm
00:22 37.8 °F /  3.2 °C 33.6 °F /  0.9 °C 30.3 in /  1024.3 hPa NNW 3 mph /  4.8 km/h 6 mph /  9.7 km/h 85 % 0 in /  0.0 mm
00:32 37.2 °F /  2.9 °C 33.4 °F /  0.8 °C 30.3 in /  1024.3 hPa NNW 1 mph /  1.6 km/h 7 mph /  11.3 km/h 86 % 0 in /  0.0 mm
00:42 37.2 °F /  2.9 °C 33.4 °F /  0.8 °C 30.3 in /  1024.3 hPa NNW 2 mph /  3.2 km/h 6 mph /  9.7 km/h 86 % 0 in /  0.0 mm
00:47 37.2 °F /  2.9 °C 33.4 °F /  0.8 °C 30.3 in /  1024.3 hPa NW 2 mph /  3.2 km/h 5 mph /  8.0 km/h 86 % 0 in /  0.0 mm
00:52 37.2 °F /  2.9 °C 33.4 °F /  0.8 °C 30.2 in /  1023.9 hPa NW 1 mph /  1.6 km/h 5 mph /  8.0 km/h 86 % 0 in /  0.0 mm
00:57 37.2 °F /  2.9 °C 33.4 °F /  0.8 °C 30.2 in /  1023.9 hPa NW 1 mph /  1.6 km/h 4 mph /  6.4 km/h 86 % 0 in /  0.0 mm
01:02 37.2 °F /  2.9 °C 33.1 °F /  0.6 °C 30.3 in /  1024.3 hPa NW 2 mph /  3.2 km/h 4 mph /  6.4 km/h 85 % 0 in /  0.0 mm
01:07 36.9 °F /  2.7 °C 32.7 °F /  0.4 °C 30.3 in /  1024.3 hPa WNW 1 mph /  1.6 km/h 3 mph /  4.8 km/h 85 % 0 in /  0.0 mm
01:12 36.1 °F /  2.3 °C 32.4 °F /  0.2 °C 30.3 in /  1024.3 hPa WNW 2 mph /  3.2 km/h 3 mph /  4.8 km/h 86 % 0 in /  0.0 mm
01:17 35.8 °F /  2.1 °C 32.4 °F /  0.2 °C 30.3 in /  1024.3 hPa WNW 2 mph /  3.2 km/h 3 mph /  4.8 km/h 87 % 0 in /  0.0 mm
01:22 35.6 °F /  2.0 °C 32.4 °F /  0.2 °C 30.3 in /  1024.3 hPa West 1 mph /  1.6 km/h 3 mph /  4.8 km/h 88 % 0 in /  0.0 mm
01:27 35.6 °F /  2.0 °C 32.4 °F /  0.2 °C 30.3 in /  1024.3 hPa Calm   3 mph /  4.8 km/h 88 % 0 in /  0.0 mm
01:32 35.8 °F /  2.1 °C 32.5 °F /  0.3 °C 30.3 in /  1024.3 hPa WNW 3 mph /  4.8 km/h 3 mph /  4.8 km/h 88 % 0 in /  0.0 mm
01:37 35.8 °F /  2.1 °C 32.5 °F /  0.3 °C 30.3 in /  1024.3 hPa WNW 1 mph /  1.6 km/h 3 mph /  4.8 km/h 88 % 0 in /  0.0 mm
01:42 35.8 °F /  2.1 °C 32.5 °F /  0.3 °C 30.3 in /  1024.3 hPa West 1 mph /  1.6 km/h 3 mph /  4.8 km/h 88 % 0 in /  0.0 mm
01:47 35.4 °F /  1.9 °C 32 °F /  0.0 °C 30.3 in /  1024.3 hPa WNW 1 mph /  1.6 km/h 3 mph /  4.8 km/h 87 % 0 in /  0.0 mm
01:52 35.2 °F /  1.8 °C 32 °F /  0.0 °C 30.3 in /  1024.3 hPa WNW 1 mph /  1.6 km/h 2 mph /  3.2 km/h 88 % 0 in /  0.0 mm
01:57 35.1 °F /  1.7 °C 31.8 °F /  -0.1 °C 30.3 in /  1024.3 hPa WNW 1 mph /  1.6 km/h 2 mph /  3.2 km/h 88 % 0 in /  0.0 mm
02:02 35.2 °F /  1.8 °C 32 °F /  0.0 °C 30.3 in /  1024.3 hPa WNW 1 mph /  1.6 km/h 3 mph /  4.8 km/h 88 % 0 in /  0.0 mm
02:12 35.6 °F /  2.0 °C 32.4 °F /  0.2 °C 30.3 in /  1024.3 hPa WNW 1 mph /  1.6 km/h 3 mph /  4.8 km/h 88 % 0 in /  0.0 mm
02:17 35.8 °F /  2.1 °C 32.5 °F /  0.3 °C 30.3 in /  1024.3 hPa WNW 2 mph /  3.2 km/h 2 mph /  3.2 km/h 88 % 0 in /  0.0 mm
02:22 35.8 °F /  2.1 °C 32.5 °F /  0.3 °C 30.3 in /  1024.3 hPa WNW 1 mph /  1.6 km/h 2 mph /  3.2 km/h 88 % 0 in /  0.0 mm
02:32 36.1 °F /  2.3 °C 32.9 °F /  0.5 °C 30.3 in /  1024.3 hPa NNW 3 mph /  4.8 km/h 3 mph /  4.8 km/h 88 % 0 in /  0.0 mm
02:37 36.7 °F /  2.6 °C 33.4 °F /  0.8 °C 30.3 in /  1024.3 hPa WNW 1 mph /  1.6 km/h 7 mph /  11.3 km/h 88 % 0 in /  0.0 mm
02:42 36.7 °F /  2.6 °C 33.3 °F /  0.7 °C 30.3 in /  1024.3 hPa NW 3 mph /  4.8 km/h 7 mph /  11.3 km/h 87 % 0 in /  0.0 mm
02:47 36.5 °F /  2.5 °C 33.1 °F /  0.6 °C 30.2 in /  1023.9 hPa Calm   7 mph /  11.3 km/h 87 % 0 in /  0.0 mm
02:52 36.3 °F /  2.4 °C 32.9 °F /  0.5 °C 30.2 in /  1023.9 hPa Calm   4 mph /  6.4 km/h 87 % 0 in /  0.0 mm
02:57 36.1 °F /  2.3 °C 32.7 °F /  0.4 °C 30.2 in /  1023.9 hPa Calm   4 mph /  6.4 km/h 87 % 0 in /  0.0 mm
03:02 36.3 °F /  2.4 °C 33.1 °F /  0.6 °C 30.2 in /  1023.9 hPa Calm   2 mph /  3.2 km/h 88 % 0 in /  0.0 mm
03:07 36.1 °F /  2.3 °C 32.9 °F /  0.5 °C 30.2 in /  1023.9 hPa NNW 1 mph /  1.6 km/h 3 mph /  4.8 km/h 88 % 0 in /  0.0 mm
03:12 36.1 °F /  2.3 °C 32.9 °F /  0.5 °C 30.2 in /  1023.9 hPa North 3 mph /  4.8 km/h 3 mph /  4.8 km/h 88 % 0 in /  0.0 mm
03:17 36.1 °F /  2.3 °C 32.9 °F /  0.5 °C 30.2 in /  1023.6 hPa NNW 2 mph /  3.2 km/h 5 mph /  8.0 km/h 88 % 0 in /  0.0 mm
03:22 36.3 °F /  2.4 °C 33.1 °F /  0.6 °C 30.2 in /  1023.6 hPa NNW 2 mph /  3.2 km/h 5 mph /  8.0 km/h 88 % 0 in /  0.0 mm
03:27 36.5 °F /  2.5 °C 33.3 °F /  0.7 °C 30.2 in /  1023.6 hPa NW 1 mph /  1.6 km/h 7 mph /  11.3 km/h 88 % 0 in /  0.0 mm
03:32 36.5 °F /  2.5 °C 33.3 °F /  0.7 °C 30.2 in /  1023.6 hPa NNW 1 mph /  1.6 km/h 7 mph /  11.3 km/h 88 % 0 in /  0.0 mm
03:37 36.3 °F /  2.4 °C 32.9 °F /  0.5 °C 30.2 in /  1023.6 hPa NNW 2 mph /  3.2 km/h 7 mph /  11.3 km/h 87 % 0 in /  0.0 mm
03:42 36.1 °F /  2.3 °C 32.9 °F /  0.5 °C 30.2 in /  1023.6 hPa WNW 4 mph /  6.4 km/h 5 mph /  8.0 km/h 88 % 0 in /  0.0 mm
03:47 36 °F /  2.2 °C 32.7 °F /  0.4 °C 30.2 in /  1023.6 hPa NNW 2 mph /  3.2 km/h 4 mph /  6.4 km/h 88 % 0 in /  0.0 mm
03:52 35.2 °F /  1.8 °C 32 °F /  0.0 °C 30.2 in /  1023.2 hPa NNW 3 mph /  4.8 km/h 4 mph /  6.4 km/h 88 % 0 in /  0.0 mm
03:57 35.2 °F /  1.8 °C 32 °F /  0.0 °C 30.2 in /  1023.2 hPa NNW 3 mph /  4.8 km/h 4 mph /  6.4 km/h 88 % 0 in /  0.0 mm
04:02 35.2 °F /  1.8 °C 32 °F /  0.0 °C 30.2 in /  1023.2 hPa NNW 3 mph /  4.8 km/h 4 mph /  6.4 km/h 88 % 0 in /  0.0 mm
08:07 34.2 °F /  1.2 °C 32.4 °F /  0.2 °C 30.2 in /  1022.2 hPa NNW 1 mph /  1.6 km/h -998.7 mph /  -1607.4 km/h 93 % 0 in /  0 mm
08:12 34.3 °F /  1.3 °C 32.5 °F /  0.3 °C 30.2 in /  1022.2 hPa NNW 1 mph /  1.6 km/h 2 mph /  3.2 km/h 93 % 0 in /  0.0 mm
08:17 34.5 °F /  1.4 °C 32.4 °F /  0.2 °C 30.2 in /  1022.2 hPa Calm   2 mph /  3.2 km/h 92 % 0 in /  0.0 mm
08:22 34.5 °F /  1.4 °C 32.4 °F /  0.2 °C 30.2 in /  1022.2 hPa NW 1 mph /  1.6 km/h 3 mph /  4.8 km/h 92 % 0 in /  0.0 mm
08:32 34.3 °F /  1.3 °C 32.2 °F /  0.1 °C 30.2 in /  1022.2 hPa NW 2 mph /  3.2 km/h 3 mph /  4.8 km/h 92 % 0 in /  0.0 mm
08:37 34.7 °F /  1.5 °C 32.5 °F /  0.3 °C 30.2 in /  1022.2 hPa NW 2 mph /  3.2 km/h 4 mph /  6.4 km/h 92 % 0 in /  0.0 mm
08:42 34.9 °F /  1.6 °C 32.7 °F /  0.4 °C 30.2 in /  1022.2 hPa WNW 1 mph /  1.6 km/h 4 mph /  6.4 km/h 92 % 0 in /  0.0 mm
08:47 35.2 °F /  1.8 °C 33.1 °F /  0.6 °C 30.2 in /  1022.6 hPa Calm   4 mph /  6.4 km/h 92 % 0 in /  0.0 mm
08:52 35.6 °F /  2.0 °C 33.4 °F /  0.8 °C 30.2 in /  1022.6 hPa Calm   3 mph /  4.8 km/h 92 % 0 in /  0.0 mm
08:57 36 °F /  2.2 °C 33.8 °F /  1.0 °C 30.2 in /  1022.6 hPa Calm   3 mph /  4.8 km/h 92 % 0 in /  0.0 mm
09:02 36.3 °F /  2.4 °C 34 °F /  1.1 °C 30.2 in /  1022.6 hPa Calm   1 mph /  1.6 km/h 91 % 0 in /  0.0 mm
09:12 37 °F /  2.8 °C 34.7 °F /  1.5 °C 30.2 in /  1022.2 hPa Calm     91 % 0 in /  0.0 mm
09:17 37.8 °F /  3.2 °C 35.4 °F /  1.9 °C 30.2 in /  1022.2 hPa NNW 1 mph /  1.6 km/h   91 % 0 in /  0.0 mm
09:22 38.1 °F /  3.4 °C 35.4 °F /  1.9 °C 30.2 in /  1022.2 hPa WNW 2 mph /  3.2 km/h 2 mph /  3.2 km/h 90 % 0 in /  0.0 mm
09:27 38.7 °F /  3.7 °C 36 °F /  2.2 °C 30.2 in /  1022.2 hPa Calm   3 mph /  4.8 km/h 90 % 0 in /  0.0 mm
09:37 39.6 °F /  4.2 °C 36 °F /  2.2 °C 30.2 in /  1022.2 hPa Calm   3 mph /  4.8 km/h 87 % 0 in /  0.0 mm
09:42 39.9 °F /  4.4 °C 36.3 °F /  2.4 °C 30.2 in /  1022.2 hPa Calm   2 mph /  3.2 km/h 87 % 0 in /  0.0 mm
09:47 40.6 °F /  4.8 °C 37 °F /  2.8 °C 30.2 in /  1022.2 hPa Calm   2 mph /  3.2 km/h 87 % 0 in /  0.0 mm
09:52 41.2 °F /  5.1 °C 37 °F /  2.8 °C 30.2 in /  1022.2 hPa North 1 mph /  1.6 km/h 1 mph /  1.6 km/h 85 % 0 in /  0.0 mm
09:57 41.2 °F /  5.1 °C 36.7 °F /  2.6 °C 30.2 in /  1022.2 hPa North 1 mph /  1.6 km/h 5 mph /  8.0 km/h 84 % 0 in /  0.0 mm
10:02 41.2 °F /  5.1 °C 36.7 °F /  2.6 °C 30.2 in /  1022.2 hPa ENE 2 mph /  3.2 km/h 5 mph /  8.0 km/h 84 % 0 in /  0.0 mm
10:12 41.7 °F /  5.4 °C 37.2 °F /  2.9 °C 30.2 in /  1022.2 hPa North 1 mph /  1.6 km/h 6 mph /  9.7 km/h 84 % 0 in /  0.0 mm
10:17 42.3 °F /  5.7 °C 37.8 °F /  3.2 °C 30.2 in /  1021.9 hPa NW 2 mph /  3.2 km/h 6 mph /  9.7 km/h 84 % 0 in /  0.0 mm
10:22 42.3 °F /  5.7 °C 36.9 °F /  2.7 °C 30.2 in /  1022.2 hPa NNW 5 mph /  8.0 km/h 8 mph /  12.9 km/h 81 % 0 in /  0.0 mm
10:27 42.6 °F /  5.9 °C 37.2 °F /  2.9 °C 30.2 in /  1021.9 hPa North 3 mph /  4.8 km/h 8 mph /  12.9 km/h 81 % 0 in /  0.0 mm
10:32 42.6 °F /  5.9 °C 36.9 °F /  2.7 °C 30.2 in /  1021.9 hPa NNW 3 mph /  4.8 km/h 8 mph /  12.9 km/h 80 % 0 in /  0.0 mm
10:37 43 °F /  6.1 °C 37.2 °F /  2.9 °C 30.2 in /  1021.9 hPa NNW 3 mph /  4.8 km/h 8 mph /  12.9 km/h 80 % 0 in /  0.0 mm
10:42 43.2 °F /  6.2 °C 37 °F /  2.8 °C 30.2 in /  1021.9 hPa NNW 6 mph /  9.7 km/h 9 mph /  14.5 km/h 79 % 0 in /  0.0 mm
10:47 43.5 °F /  6.4 °C 37 °F /  2.8 °C 30.2 in /  1021.9 hPa NE 1 mph /  1.6 km/h 9 mph /  14.5 km/h 78 % 0 in /  0.0 mm
10:57 44.1 °F /  6.7 °C 37 °F /  2.8 °C 30.2 in /  1021.9 hPa NNE 1 mph /  1.6 km/h 9 mph /  14.5 km/h 76 % 0 in /  0.0 mm
11:02 44.2 °F /  6.8 °C 37.2 °F /  2.9 °C 30.2 in /  1021.9 hPa NNW 2 mph /  3.2 km/h 9 mph /  14.5 km/h 76 % 0 in /  0.0 mm
11:07 44.4 °F /  6.9 °C 37.4 °F /  3.0 °C 30.2 in /  1021.9 hPa NNW 4 mph /  6.4 km/h 9 mph /  14.5 km/h 76 % 0 in /  0.0 mm
11:12 44.8 °F /  7.1 °C 37.9 °F /  3.3 °C 30.2 in /  1021.9 hPa NW 3 mph /  4.8 km/h 8 mph /  12.9 km/h 77 % 0 in /  0.0 mm
11:17 45.1 °F /  7.3 °C 37.8 °F /  3.2 °C 30.2 in /  1021.9 hPa NNE 5 mph /  8.0 km/h 9 mph /  14.5 km/h 75 % 0 in /  0.0 mm
11:27 45.1 °F /  7.3 °C 37.4 °F /  3.0 °C 30.2 in /  1021.9 hPa NNW 5 mph /  8.0 km/h 12 mph /  19.3 km/h 74 % 0 in /  0.0 mm
11:32 45.1 °F /  7.3 °C 37.4 °F /  3.0 °C 30.2 in /  1021.9 hPa North 5 mph /  8.0 km/h 12 mph /  19.3 km/h 74 % 0 in /  0.0 mm
11:37 45.3 °F /  7.4 °C 37.6 °F /  3.1 °C 30.2 in /  1021.6 hPa North 4 mph /  6.4 km/h 12 mph /  19.3 km/h 74 % 0 in /  0.0 mm
11:42 45.1 °F /  7.3 °C 36.7 °F /  2.6 °C 30.2 in /  1021.6 hPa NNW 6 mph /  9.7 km/h 12 mph /  19.3 km/h 72 % 0 in /  0.0 mm
11:47 45.1 °F /  7.3 °C 37 °F /  2.8 °C 30.2 in /  1021.6 hPa North 8 mph /  12.9 km/h 12 mph /  19.3 km/h 73 % 0 in /  0.0 mm
11:52 45.1 °F /  7.3 °C 36.7 °F /  2.6 °C 30.2 in /  1021.6 hPa NNW 7 mph /  11.3 km/h 12 mph /  19.3 km/h 72 % 0 in /  0.0 mm
11:57 45.5 °F /  7.5 °C 37.8 °F /  3.2 °C 30.2 in /  1021.6 hPa NNE 3 mph /  4.8 km/h 12 mph /  19.3 km/h 74 % 0 in /  0.0 mm
12:02 45.7 °F /  7.6 °C 37.2 °F /  2.9 °C 30.2 in /  1021.2 hPa NNW 7 mph /  11.3 km/h 12 mph /  19.3 km/h 72 % 0 in /  0.0 mm
12:07 45.7 °F /  7.6 °C 37.9 °F /  3.3 °C 30.2 in /  1021.2 hPa NNE 5 mph /  8.0 km/h 12 mph /  19.3 km/h 74 % 0 in /  0.0 mm
12:12 45.9 °F /  7.7 °C 37.8 °F /  3.2 °C 30.2 in /  1021.2 hPa NW 2 mph /  3.2 km/h 11 mph /  17.7 km/h 73 % 0 in /  0.0 mm
12:17 46 °F /  7.8 °C 37.6 °F /  3.1 °C 30.2 in /  1021.2 hPa NW 2 mph /  3.2 km/h 11 mph /  17.7 km/h 72 % 0 in /  0.0 mm
12:22 46 °F /  7.8 °C 36.9 °F /  2.7 °C 30.2 in /  1021.2 hPa NNE 2 mph /  3.2 km/h 11 mph /  17.7 km/h 70 % 0 in /  0.0 mm
12:27 46.2 °F /  7.9 °C 37 °F /  2.8 °C 30.2 in /  1021.2 hPa NW 4 mph /  6.4 km/h 11 mph /  17.7 km/h 70 % 0 in /  0.0 mm
12:42 46.2 °F /  7.9 °C 36.3 °F /  2.4 °C 30.2 in /  1020.9 hPa NNE 8 mph /  12.9 km/h 13 mph /  20.9 km/h 68 % 0 in /  0.0 mm
12:47 46 °F /  7.8 °C 36.1 °F /  2.3 °C 30.2 in /  1020.9 hPa North 7 mph /  11.3 km/h 13 mph /  20.9 km/h 68 % 0 in /  0.0 mm
12:52 46.2 °F /  7.9 °C 36 °F /  2.2 °C 30.2 in /  1020.9 hPa North 7 mph /  11.3 km/h 12 mph /  19.3 km/h 67 % 0 in /  0.0 mm
12:57 46.4 °F /  8.0 °C 36.5 °F /  2.5 °C 30.1 in /  1020.5 hPa North 5 mph /  8.0 km/h 14 mph /  22.5 km/h 68 % 0 in /  0.0 mm
13:02 46.4 °F /  8.0 °C 35.6 °F /  2.0 °C 30.1 in /  1020.5 hPa NNE 6 mph /  9.7 km/h 14 mph /  22.5 km/h 66 % 0 in /  0.0 mm
13:07 46.4 °F /  8.0 °C 35.2 °F /  1.8 °C 30.1 in /  1020.5 hPa NNE 8 mph /  12.9 km/h 14 mph /  22.5 km/h 65 % 0 in /  0.0 mm
13:12 46.6 °F /  8.1 °C 36.1 °F /  2.3 °C 30.1 in /  1020.5 hPa NNW 7 mph /  11.3 km/h 14 mph /  22.5 km/h 67 % 0 in /  0.0 mm
13:17 46.8 °F /  8.2 °C 36 °F /  2.2 °C 30.1 in /  1020.2 hPa NW 7 mph /  11.3 km/h 14 mph /  22.5 km/h 66 % 0 in /  0.0 mm
13:22 46.6 °F /  8.1 °C 35.4 °F /  1.9 °C 30.1 in /  1020.2 hPa NNW 7 mph /  11.3 km/h 14 mph /  22.5 km/h 65 % 0 in /  0.0 mm
13:27 46.8 °F /  8.2 °C 36.3 °F /  2.4 °C 30.1 in /  1020.2 hPa NE 10 mph /  16.1 km/h 13 mph /  20.9 km/h 67 % 0 in /  0.0 mm
13:32 46.9 °F /  8.3 °C 35.8 °F /  2.1 °C 30.1 in /  1020.2 hPa North 7 mph /  11.3 km/h 12 mph /  19.3 km/h 65 % 0 in /  0.0 mm
13:37 46.9 °F /  8.3 °C 35.8 °F /  2.1 °C 30.1 in /  1020.2 hPa NNW 3 mph /  4.8 km/h 12 mph /  19.3 km/h 65 % 0 in /  0.0 mm
13:42 47.1 °F /  8.4 °C 35.6 °F /  2.0 °C 30.1 in /  1020.2 hPa NNW 1 mph /  1.6 km/h 12 mph /  19.3 km/h 64 % 0 in /  0.0 mm
13:47 46.9 °F /  8.3 °C 35.8 °F /  2.1 °C 30.1 in /  1020.2 hPa NNW 4 mph /  6.4 km/h 11 mph /  17.7 km/h 65 % 0 in /  0.0 mm
13:52 46.9 °F /  8.3 °C 35.8 °F /  2.1 °C 30.1 in /  1020.2 hPa North 6 mph /  9.7 km/h 11 mph /  17.7 km/h 65 % 0 in /  0.0 mm
13:57 46.9 °F /  8.3 °C 35.1 °F /  1.7 °C 30.1 in /  1020.2 hPa North 4 mph /  6.4 km/h 11 mph /  17.7 km/h 63 % 0 in /  0.0 mm
14:02 47.1 °F /  8.4 °C 36.3 °F /  2.4 °C 30.1 in /  1019.9 hPa NNW 5 mph /  8.0 km/h 10 mph /  16.1 km/h 66 % 0 in /  0.0 mm
14:07 46.9 °F /  8.3 °C 35.8 °F /  2.1 °C 30.1 in /  1019.9 hPa NW 3 mph /  4.8 km/h 10 mph /  16.1 km/h 65 % 0 in /  0.0 mm
14:12 47.1 °F /  8.4 °C 36.3 °F /  2.4 °C 30.1 in /  1019.9 hPa NNE 1 mph /  1.6 km/h 12 mph /  19.3 km/h 66 % 0 in /  0.0 mm
14:22 47.3 °F /  8.5 °C 36.1 °F /  2.3 °C 30.1 in /  1019.9 hPa NNW 4 mph /  6.4 km/h 12 mph /  19.3 km/h 65 % 0 in /  0.0 mm
14:27 47.5 °F /  8.6 °C 36 °F /  2.2 °C 30.1 in /  1019.9 hPa North 7 mph /  11.3 km/h 9 mph /  14.5 km/h 64 % 0 in /  0.0 mm
14:32 47.3 °F /  8.5 °C 35.8 °F /  2.1 °C 30.1 in /  1019.9 hPa North 7 mph /  11.3 km/h 10 mph /  16.1 km/h 64 % 0 in /  0.0 mm
14:37 47.1 °F /  8.4 °C 36 °F /  2.2 °C 30.1 in /  1019.9 hPa North 8 mph /  12.9 km/h 10 mph /  16.1 km/h 65 % 0 in /  0.0 mm
14:42 47.3 °F /  8.5 °C 36.5 °F /  2.5 °C 30.1 in /  1019.9 hPa WNW 2 mph /  3.2 km/h 11 mph /  17.7 km/h 66 % 0 in /  0.0 mm
14:47 47.5 °F /  8.6 °C 36.7 °F /  2.6 °C 30.1 in /  1019.9 hPa North 4 mph /  6.4 km/h 11 mph /  17.7 km/h 66 % 0 in /  0.0 mm
14:52 47.7 °F /  8.7 °C 36.9 °F /  2.7 °C 30.1 in /  1019.9 hPa NNW 6 mph /  9.7 km/h 11 mph /  17.7 km/h 66 % 0 in /  0.0 mm
14:57 47.5 °F /  8.6 °C 36.3 °F /  2.4 °C 30.1 in /  1019.9 hPa NW 2 mph /  3.2 km/h 8 mph /  12.9 km/h 65 % 0 in /  0.0 mm
15:02 47.7 °F /  8.7 °C 36.5 °F /  2.5 °C 30.1 in /  1019.9 hPa NE 5 mph /  8.0 km/h 8 mph /  12.9 km/h 65 % 0 in /  0.0 mm
15:07 47.5 °F /  8.6 °C 36.3 °F /  2.4 °C 30.1 in /  1019.9 hPa NW 2 mph /  3.2 km/h 8 mph /  12.9 km/h 65 % 0 in /  0.0 mm
15:12 47.5 °F /  8.6 °C 36.7 °F /  2.6 °C 30.1 in /  1019.9 hPa North 2 mph /  3.2 km/h 9 mph /  14.5 km/h 66 % 0 in /  0.0 mm
15:17 47.8 °F /  8.8 °C 36.7 °F /  2.6 °C 30.1 in /  1019.9 hPa Calm   9 mph /  14.5 km/h 65 % 0 in /  0.0 mm
15:22 47.8 °F /  8.8 °C 36.3 °F /  2.4 °C 30.1 in /  1019.9 hPa NW 3 mph /  4.8 km/h 5 mph /  8.0 km/h 64 % 0 in /  0.0 mm
15:32 47.1 °F /  8.4 °C 36 °F /  2.2 °C 30.1 in /  1019.9 hPa NNW 2 mph /  3.2 km/h 7 mph /  11.3 km/h 65 % 0 in /  0.0 mm
15:37 47.1 °F /  8.4 °C 36.7 °F /  2.6 °C 30.1 in /  1019.9 hPa NW 3 mph /  4.8 km/h 7 mph /  11.3 km/h 67 % 0 in /  0.0 mm
15:42 47.1 °F /  8.4 °C 36.3 °F /  2.4 °C 30.1 in /  1019.9 hPa Calm   7 mph /  11.3 km/h 66 % 0 in /  0.0 mm
15:47 47.1 °F /  8.4 °C 36.3 °F /  2.4 °C 30.1 in /  1019.9 hPa NNW 2 mph /  3.2 km/h 5 mph /  8.0 km/h 66 % 0 in /  0.0 mm
15:52 47.1 °F /  8.4 °C 36.3 °F /  2.4 °C 30.1 in /  1019.9 hPa NNE 3 mph /  4.8 km/h 5 mph /  8.0 km/h 66 % 0 in /  0.0 mm
15:57 47.1 °F /  8.4 °C 36.3 °F /  2.4 °C 30.1 in /  1019.9 hPa NNW 2 mph /  3.2 km/h 5 mph /  8.0 km/h 66 % 0 in /  0.0 mm
16:02 47.3 °F /  8.5 °C 36.5 °F /  2.5 °C 30.1 in /  1019.9 hPa NNE 4 mph /  6.4 km/h 5 mph /  8.0 km/h 66 % 0 in /  0.0 mm
16:07 47.5 °F /  8.6 °C 36.7 °F /  2.6 °C 30.1 in /  1019.9 hPa NE 1 mph /  1.6 km/h 5 mph /  8.0 km/h 66 % 0 in /  0.0 mm
16:12 47.7 °F /  8.7 °C 36.9 °F /  2.7 °C 30.1 in /  1019.9 hPa North 3 mph /  4.8 km/h 5 mph /  8.0 km/h 66 % 0 in /  0.0 mm
16:22 47.1 °F /  8.4 °C 35.6 °F /  2.0 °C 30.1 in /  1019.9 hPa NNE 3 mph /  4.8 km/h 7 mph /  11.3 km/h 64 % 0 in /  0.0 mm
16:27 46.9 °F /  8.3 °C 35.8 °F /  2.1 °C 30.1 in /  1019.9 hPa NNW 1 mph /  1.6 km/h 7 mph /  11.3 km/h 65 % 0 in /  0.0 mm
16:32 46.8 °F /  8.2 °C 36 °F /  2.2 °C 30.1 in /  1019.9 hPa Calm   7 mph /  11.3 km/h 66 % 0 in /  0.0 mm
16:42 46.9 °F /  8.3 °C 35.8 °F /  2.1 °C 30.1 in /  1019.9 hPa Calm   2 mph /  3.2 km/h 65 % 0 in /  0.0 mm
16:52 46.2 °F /  7.9 °C 36 °F /  2.2 °C 30.1 in /  1019.9 hPa Calm   3 mph /  4.8 km/h 67 % 0 in /  0.0 mm
16:57 46.2 °F /  7.9 °C 36 °F /  2.2 °C 30.1 in /  1019.9 hPa WNW 1 mph /  1.6 km/h 2 mph /  3.2 km/h 67 % 0 in /  0.0 mm
17:02 45.9 °F /  7.7 °C 35.6 °F /  2.0 °C 30.1 in /  1019.9 hPa Calm   2 mph /  3.2 km/h 67 % 0 in /  0.0 mm
17:07 45.1 °F /  7.3 °C 35.6 °F /  2.0 °C 30.1 in /  1019.9 hPa WNW 1 mph /  1.6 km/h 2 mph /  3.2 km/h 69 % 0 in /  0.0 mm
17:12 44.6 °F /  7.0 °C 35.4 °F /  1.9 °C 30.1 in /  1019.9 hPa Calm   2 mph /  3.2 km/h 70 % 0 in /  0.0 mm
17:17 44.2 °F /  6.8 °C 35.1 °F /  1.7 °C 30.1 in /  1019.9 hPa Calm   2 mph /  3.2 km/h 70 % 0 in /  0.0 mm
17:22 43.9 °F /  6.6 °C 35.1 °F /  1.7 °C 30.1 in /  1019.9 hPa Calm   2 mph /  3.2 km/h 71 % 0 in /  0.0 mm
17:27 43.3 °F /  6.3 °C 34.9 °F /  1.6 °C 30.1 in /  1019.9 hPa Calm   1 mph /  1.6 km/h 72 % 0 in /  0.0 mm
17:32 42.8 °F /  6.0 °C 34.7 °F /  1.5 °C 30.1 in /  1019.9 hPa Calm   1 mph /  1.6 km/h 73 % 0 in /  0.0 mm
17:37 42.4 °F /  5.8 °C 34.7 °F /  1.5 °C 30.1 in /  1019.9 hPa Calm   1 mph /  1.6 km/h 74 % 0 in /  0.0 mm
17:42 42.4 °F /  5.8 °C 34.7 °F /  1.5 °C 30.1 in /  1019.5 hPa Calm     74 % 0 in /  0.0 mm
17:47 41.7 °F /  5.4 °C 34.3 °F /  1.3 °C 30.1 in /  1019.9 hPa Calm     75 % 0 in /  0.0 mm
17:52 41.2 °F /  5.1 °C 34.2 °F /  1.2 °C 30.1 in /  1019.9 hPa Calm     76 % 0 in /  0.0 mm
17:57 40.8 °F /  4.9 °C 34.2 °F /  1.2 °C 30.1 in /  1019.5 hPa Calm     77 % 0 in /  0.0 mm
18:02 40.5 °F /  4.7 °C 33.8 °F /  1.0 °C 30.1 in /  1019.5 hPa Calm     77 % 0 in /  0.0 mm
18:07 40.5 °F /  4.7 °C 34.2 °F /  1.2 °C 30.1 in /  1019.9 hPa Calm     78 % 0 in /  0.0 mm
18:12 40.3 °F /  4.6 °C 34.3 °F /  1.3 °C 30.1 in /  1019.9 hPa WNW 2 mph /  3.2 km/h   79 % 0 in /  0.0 mm
18:27 38.8 °F /  3.8 °C 33.8 °F /  1.0 °C 30.1 in /  1019.5 hPa Calm   2 mph /  3.2 km/h 82 % 0 in /  0.0 mm
18:32 38.8 °F /  3.8 °C 33.8 °F /  1.0 °C 30.1 in /  1019.9 hPa Calm   1 mph /  1.6 km/h 82 % 0 in /  0.0 mm
18:42 39.2 °F /  4.0 °C 33.8 °F /  1.0 °C 30.1 in /  1019.5 hPa Calm   1 mph /  1.6 km/h 81 % 0 in /  0.0 mm
18:52 38.5 °F /  3.6 °C 33.4 °F /  0.8 °C 30.1 in /  1019.9 hPa NW 1 mph /  1.6 km/h 2 mph /  3.2 km/h 82 % 0 in /  0.0 mm
18:57 37.9 °F /  3.3 °C 33.6 °F /  0.9 °C 30.1 in /  1019.9 hPa WNW 1 mph /  1.6 km/h 2 mph /  3.2 km/h 84 % 0 in /  0.0 mm
19:02 37.9 °F /  3.3 °C 33.8 °F /  1.0 °C 30.1 in /  1019.9 hPa WNW 1 mph /  1.6 km/h 2 mph /  3.2 km/h 85 % 0 in /  0.0 mm
19:12 37.2 °F /  2.9 °C 33.1 °F /  0.6 °C 30.1 in /  1019.9 hPa WNW 1 mph /  1.6 km/h 2 mph /  3.2 km/h 85 % 0 in /  0.0 mm
19:17 36.7 °F /  2.6 °C 32.9 °F /  0.5 °C 30.1 in /  1019.9 hPa WNW 1 mph /  1.6 km/h 2 mph /  3.2 km/h 86 % 0 in /  0.0 mm
19:22 36.3 °F /  2.4 °C 32.5 °F /  0.3 °C 30.1 in /  1019.5 hPa WNW 1 mph /  1.6 km/h 2 mph /  3.2 km/h 86 % 0 in /  0.0 mm
19:27 36.1 °F /  2.3 °C 32.9 °F /  0.5 °C 30.1 in /  1019.5 hPa WNW 1 mph /  1.6 km/h 2 mph /  3.2 km/h 88 % 0 in /  0.0 mm
19:37 36.5 °F /  2.5 °C 33.1 °F /  0.6 °C 30.1 in /  1019.5 hPa WNW 1 mph /  1.6 km/h 2 mph /  3.2 km/h 87 % 0 in /  0.0 mm
19:42 36.3 °F /  2.4 °C 32.9 °F /  0.5 °C 30.1 in /  1019.5 hPa WNW 1 mph /  1.6 km/h 1 mph /  1.6 km/h 87 % 0 in /  0.0 mm
19:47 36 °F /  2.2 °C 32.5 °F /  0.3 °C 30.1 in /  1019.5 hPa WNW 1 mph /  1.6 km/h 2 mph /  3.2 km/h 87 % 0 in /  0.0 mm
19:52 35.8 °F /  2.1 °C 32.5 °F /  0.3 °C 30.1 in /  1019.5 hPa Calm   2 mph /  3.2 km/h 88 % 0 in /  0.0 mm
19:57 35.8 °F /  2.1 °C 32.5 °F /  0.3 °C 30.1 in /  1019.5 hPa Calm   2 mph /  3.2 km/h 88 % 0 in /  0.0 mm
20:02 36 °F /  2.2 °C 32.7 °F /  0.4 °C 30.1 in /  1019.5 hPa Calm   1 mph /  1.6 km/h 88 % 0 in /  0.0 mm
20:07 35.8 °F /  2.1 °C 32.5 °F /  0.3 °C 30.1 in /  1019.5 hPa Calm   1 mph /  1.6 km/h 88 % 0 in /  0.0 mm
20:12 35.2 °F /  1.8 °C 32 °F /  0.0 °C 30.1 in /  1019.5 hPa Calm   1 mph /  1.6 km/h 88 % 0 in /  0.0 mm
20:17 34.9 °F /  1.6 °C 31.6 °F /  -0.2 °C 30.1 in /  1019.5 hPa Calm   1 mph /  1.6 km/h 88 % 0 in /  0.0 mm
20:22 34.3 °F /  1.3 °C 31.5 °F /  -0.3 °C 30.1 in /  1019.5 hPa Calm     89 % 0 in /  0.0 mm
20:27 34.2 °F /  1.2 °C 31.3 °F /  -0.4 °C 30.1 in /  1019.5 hPa Calm     89 % 0 in /  0.0 mm
20:32 34.2 °F /  1.2 °C 31.5 °F /  -0.3 °C 30.1 in /  1019.2 hPa Calm     90 % 0 in /  0.0 mm
20:37 34 °F /  1.1 °C 31.3 °F /  -0.4 °C 30.1 in /  1019.2 hPa Calm     90 % 0 in /  0.0 mm
20:42 33.8 °F /  1.0 °C 31.1 °F /  -0.5 °C 30.1 in /  1019.2 hPa Calm     90 % 0 in /  0.0 mm
20:52 33.4 °F /  0.8 °C 30.7 °F /  -0.7 °C 30.1 in /  1019.2 hPa West 1 mph /  1.6 km/h 1 mph /  1.6 km/h 90 % 0 in /  0.0 mm
20:57 33.3 °F /  0.7 °C 30.9 °F /  -0.6 °C 30.1 in /  1019.2 hPa WNW 1 mph /  1.6 km/h 1 mph /  1.6 km/h 91 % 0 in /  0.0 mm
21:02 33.3 °F /  0.7 °C 30.9 °F /  -0.6 °C 30.1 in /  1019.2 hPa Calm   2 mph /  3.2 km/h 91 % 0 in /  0.0 mm
21:07 33.3 °F /  0.7 °C 30.9 °F /  -0.6 °C 30.1 in /  1019.2 hPa WNW 1 mph /  1.6 km/h 2 mph /  3.2 km/h 91 % 0 in /  0.0 mm
21:12 33.1 °F /  0.6 °C 30.7 °F /  -0.7 °C 30.1 in /  1019.2 hPa Calm   2 mph /  3.2 km/h 91 % 0 in /  0.0 mm
21:17 32.9 °F /  0.5 °C 30.6 °F /  -0.8 °C 30.1 in /  1019.2 hPa Calm   1 mph /  1.6 km/h 91 % 0 in /  0.0 mm
21:22 33.1 °F /  0.6 °C 31.1 °F /  -0.5 °C 30.1 in /  1019.2 hPa Calm   1 mph /  1.6 km/h 92 % 0 in /  0.0 mm
21:32 33.4 °F /  0.8 °C 31.6 °F /  -0.2 °C 30.1 in /  1019.5 hPa West 1 mph /  1.6 km/h   93 % 0 in /  0.0 mm
21:37 33.8 °F /  1.0 °C 31.6 °F /  -0.2 °C 30.1 in /  1019.5 hPa West 1 mph /  1.6 km/h 3 mph /  4.8 km/h 92 % 0 in /  0.0 mm
21:42 33.8 °F /  1.0 °C 31.5 °F /  -0.3 °C 30.1 in /  1019.5 hPa Calm   3 mph /  4.8 km/h 91 % 0 in /  0.0 mm
21:47 33.6 °F /  0.9 °C 31.3 °F /  -0.4 °C 30.1 in /  1019.2 hPa Calm   3 mph /  4.8 km/h 91 % 0 in /  0.0 mm
21:52 33.6 °F /  0.9 °C 31.3 °F /  -0.4 °C 30.1 in /  1019.2 hPa Calm   2 mph /  3.2 km/h 91 % 0 in /  0.0 mm
21:57 33.6 °F /  0.9 °C 31.3 °F /  -0.4 °C 30.1 in /  1019.2 hPa Calm   1 mph /  1.6 km/h 91 % 0 in /  0.0 mm
22:02 33.6 °F /  0.9 °C 30.9 °F /  -0.6 °C 30.1 in /  1019.2 hPa Calm   1 mph /  1.6 km/h 90 % 0 in /  0.0 mm
22:07 33.3 °F /  0.7 °C 30.6 °F /  -0.8 °C 30.1 in /  1019.2 hPa WNW 1 mph /  1.6 km/h 1 mph /  1.6 km/h 90 % 0 in /  0.0 mm
22:12 33.1 °F /  0.6 °C 30.7 °F /  -0.7 °C 30.1 in /  1019.2 hPa Calm   2 mph /  3.2 km/h 91 % 0 in /  0.0 mm
22:22 33.1 °F /  0.6 °C 31.1 °F /  -0.5 °C 30.1 in /  1019.2 hPa Calm   2 mph /  3.2 km/h 92 % 0 in /  0.0 mm
22:27 33.3 °F /  0.7 °C 31.1 °F /  -0.5 °C 30.1 in /  1019.2 hPa North 2 mph /  3.2 km/h 2 mph /  3.2 km/h 92 % 0 in /  0.0 mm
22:32 33.1 °F /  0.6 °C 30.7 °F /  -0.7 °C 30.1 in /  1019.2 hPa NNE 1 mph /  1.6 km/h 2 mph /  3.2 km/h 91 % 0 in /  0.0 mm
22:37 32.7 °F /  0.4 °C 30.7 °F /  -0.7 °C 30.1 in /  1019.2 hPa Calm   2 mph /  3.2 km/h 92 % 0 in /  0.0 mm
22:47 32.4 °F /  0.2 °C 30.4 °F /  -0.9 °C 30.1 in /  1019.2 hPa Calm   2 mph /  3.2 km/h 92 % 0 in /  0.0 mm
22:52 32.4 °F /  0.2 °C 30.4 °F /  -0.9 °C 30.1 in /  1019.2 hPa Calm   1 mph /  1.6 km/h 92 % 0 in /  0.0 mm
22:57 32.2 °F /  0.1 °C 30.2 °F /  -1.0 °C 30.1 in /  1018.8 hPa Calm   1 mph /  1.6 km/h 92 % 0 in /  0.0 mm
23:02 32 °F /  0.0 °C 30 °F /  -1.1 °C 30.1 in /  1018.8 hPa Calm     92 % 0 in /  0.0 mm
23:07 32.2 °F /  0.1 °C 30.4 °F /  -0.9 °C 30.1 in /  1018.8 hPa Calm     93 % 0 in /  0.0 mm
23:12 32.5 °F /  0.3 °C 30.7 °F /  -0.7 °C 30.1 in /  1018.8 hPa Calm   1 mph /  1.6 km/h 93 % 0 in /  0.0 mm
23:17 32.4 °F /  0.2 °C 30.6 °F /  -0.8 °C 30.1 in /  1018.8 hPa Calm   1 mph /  1.6 km/h 93 % 0 in /  0.0 mm
23:22 32.4 °F /  0.2 °C 30.4 °F /  -0.9 °C 30.1 in /  1018.8 hPa Calm   1 mph /  1.6 km/h 92 % 0 in /  0.0 mm
23:27 32.4 °F /  0.2 °C 30.6 °F /  -0.8 °C 30.1 in /  1018.8 hPa Calm   1 mph /  1.6 km/h 93 % 0 in /  0.0 mm
23:32 32.4 °F /  0.2 °C 30.6 °F /  -0.8 °C 30.1 in /  1018.8 hPa Calm   1 mph /  1.6 km/h 93 % 0 in /  0.0 mm
23:37 32.4 °F /  0.2 °C 30.6 °F /  -0.8 °C 30.1 in /  1018.8 hPa North 1 mph /  1.6 km/h 1 mph /  1.6 km/h 93 % 0 in /  0.0 mm
23:42 32.2 °F /  0.1 °C 30.2 °F /  -1.0 °C 30.1 in /  1018.8 hPa Calm   1 mph /  1.6 km/h 92 % 0 in /  0.0 mm
23:47 31.8 °F /  -0.1 °C 29.8 °F /  -1.2 °C 30.1 in /  1018.8 hPa Calm   1 mph /  1.6 km/h 92 % 0 in /  0.0 mm
23:52 31.6 °F /  -0.2 °C 29.8 °F /  -1.2 °C 30.1 in /  1018.8 hPa Calm   1 mph /  1.6 km/h 93 % 0 in /  0.0 mm
23:57 31.3 °F /  -0.4 °C 29.3 °F /  -1.5 °C 30.1 in /  1018.8 hPa Calm     92 % 0 in /  0.0 mm
Meteo18
Compliments of Weather Underground - 4 mb

Script developed by  Jim McMurry - jmcmurry@mwt.net Adapted for the template by  Wim van der Kuil - Leuven-Template.eu

You find our weather info also at:

European Weather Network

Weather Underground

Equipment we use:

Weather-station
Davis Vue

Weather-program
Meteohub

Weather-server
Raspberry PI 2 B+

Provider
1 and 1

Davis Vue

Meteohub

Raspberry PI 2 B+

1 and 1